Aérodrome :
LOGIN :

S'inscrire | Disclaimer

   EN    FR    IT 

 










Légende :    VFR   VFR Marginal   IFR   IFR Intensif   IFR Très Intensif
Visi : 
Plafond : 
>= 8 km
>= 3000ft
5 à 8 km
1000 à 3000 ft
1500m à 5 km
500 à 1000 ft
800 à 1500m
200 à 500 ft
< 800m
< 200 ft
Symboles :   Orages  Brouillard  Fortes neiges  Fortes précipitations  Vent > 20 kt
SIGMETs :   Divers  Orages  Givrage  Turbulence  Onde Orograph.  Cendres Volcan.







- Altitude de l'aérodrome : 18 ft
- Code IATA : AJA
- Voir les cartes d'approche


LFKJ - Ajaccio

DERNIER METAR :
  • 172000Z AUTO 12003KT 090V150 9999 FEW017 23/19 Q1013 NOSIG

METARs EXPIRÉS :
  • 171930Z AUTO 22005KT CAVOK 23/19 Q1013 NOSIG
  • 171900Z AUTO 22006KT CAVOK 24/20 Q1013 NOSIG
  • 171830Z AUTO 21006KT CAVOK 24/19 Q1012 NOSIG
  • 171800Z AUTO 22006KT CAVOK 25/20 Q1012 NOSIG
  • 171730Z AUTO 20007KT CAVOK 25/19 Q1012 NOSIG

TAF TAF LFKJ
Valide du 17 à 15h jusqu'au 18 à 15h UTC


171400Z 1715/1815 22010KT CAVOK
BECMG 1717/1721 04004KT
TEMPO 1801/1805 BKN014
BECMG 1807/1810 24012KT
ATIS : +33 4 95 23 59 85
Pas de NOTAMs connus pour ce terrain.



MET'MAP, la Météo Aéronautique d'un coup d'oeil ! - Copyright ORBIFLY Décembre 2007 - Disclaimer

ORBIFLY MET'MAP TEAM :

Programmation & Développement : Alexandra Zaïnal
Conception & Développement : Baudouin d'Aumeries
Co-Programmation & Développement : Marc-Olivier Méhu
Soutien technique & logistique : Manuel Goepfert

Contact : metmap@orbifly.com




SOURCES & CREDITS :

   NOAA